Hot Springs National Park, Arkansas
Current Conditions -  °F | °C
As of 2:53 AM on Monday 24 Nov 2014 (Local Time) from KHOT Reporting Station
Overcast Overcast  
Wind Chill: 50°   Ceiling: 3400
Heat Index: 50°   Visibility: 10mi
Dew Point: 39°   Wind: 8mph
Humidity: 66%   Direction: 290°WNW
Pressure: 29.69"   Gusts: 20mph
Location:  34.5036°N, 93.055°W
Report Text: KHOT 240853Z AUTO 29007G17KT 10SM OVC034 10/04 A2969 RMK AO2 PK WND 31026/0757 SLP050 T01000039 53055
Loading
Personal Weather Stations






























Interactive Weather Map New forecast layout! Learn more

10-Day Weather Forecast

Advertisements
Track Severe Weather on mobile